Tiempo atmosférico en la estación meteorológica de Málaga, Puerto, Málaga (20 m.)



Fecha
DESCASC
Temp. máxima en grados centígrados (hora)
DESCASC
Temp. mínima en grados centígrados (hora)
DESCASC
Temp. media en grados centígrados
DESCASC
Racha de viento máxima en m/sg (hora)
DESCASC
Velocidad máxima media en intervalos de 10 minutos(hora)
DESCASC
Precipitaciones diarias en mm
DESCASC
Precipitaciones de 00:00 a 06:00 en mm
DESCASC
Precipitaciones de 06:00 a 12:00 en mm
DESCASC
Precipitaciones de 12:00 a 18:00 en mm
DESCASC
Precipitaciones de 18:00 a 24:00 en mm
DESCASC
16-01-2020 19.6 (12:20) 9.8 (08:40) 14.7 5.28 (02:10) 3.33 (03:20) 0 0 0 0 0
15-01-2020 19.1 (12:30) 10.1 (07:40) 14.6 6.67 (03:40) 3.89 (00:10) 0 0 0 0 0
14-01-2020 18.1 (14:10) 9.8 (06:30) 14 6.67 (05:40) 4.72 (15:30) 0 0 0 0 0
13-01-2020 17.3 (12:10) 9.7 (08:00) 13.5 5 (00:20) 3.06 (00:30) 0 0 0 0 0
12-01-2020 17 (13:10) 9.8 (00:00) 13.4 6.39 (14:40) 4.17 (14:40) 0 0 0 0 0
11-01-2020 17.3 (13:00) 9.8 (00:00) 13.5 6.11 (16:20) 4.17 (16:20) 0 0 0 0 0
10-01-2020 19 (14:40) 10.7 (00:00) 14.8 9.72 (06:30) 5.28 (04:20) 0 0 0 0 0
09-01-2020 18.1 (14:20) 10.9 (00:00) 14.5 4.72 (21:30) 2.78 (21:30) 0 0 0 0 0
08-01-2020 17 (14:10) 8.6 (00:00) 12.8 6.94 (18:00) 3.06 (02:10) 0 0 0 0 0
07-01-2020 17.8 (11:30) 9.1 (00:00) 13.4 5.28 (01:30) 3.33 (02:50) 0 0 0 0 0
06-01-2020 18.4 (12:20) 10 (00:00) 14.2 5.56 (10:00) 3.33 (09:00) 0 0 0 0 0
05-01-2020 18.1 (13:00) 11 (00:00) 14.6 8.61 (01:50) 5.56 (01:20) 0 0 0 0 0
04-01-2020 15.7 (14:40) 10.4 (00:00) 13 8.89 (23:10) 4.72 (16:50) 0 0 0 0 0
03-01-2020 17.9 (11:40) 9.4 (00:00) 13.6 5.83 (22:10) 3.61 (15:40) 0 0 0 0 0
02-01-2020 17.7 (14:50) 10.8 (00:00) 14.3 5 (23:30) 3.06 (22:00) 0 0 0 0 0
01-01-2020 17.9 (12:00) 10.1 (00:00) 14 5.28 (07:20) 3.33 (00:20) 0 0 0 0 0
31-12-2019 16.5 (11:10) 9.9 (00:00) 13.2 6.11 (13:10) 4.44 (13:20) 0 0 0 0 0
30-12-2019 16.5 (13:00) 11.7 (00:00) 14.1 7.22 (12:50) 4.44 (13:50) 0 0 0 0 0
29-12-2019 18 (14:40) 13.3 (00:00) 15.7 7.78 (09:40) 4.17 (09:40) 0 0 0 0 0
28-12-2019 18.4 (11:10) 11.4 (00:00) 14.9 5 (04:40) 3.06 (01:20) 0 0 0 0 0
27-12-2019 21.3 (11:30) 12.8 (00:00) 17 5.28 (09:20) 3.33 (09:10) 0 0 0 0 0
26-12-2019 20.7 (11:50) 12.4 (00:00) 16.6 4.17 (08:30) 2.78 (04:10) 0 0 0 0 0
25-12-2019 24.3 (13:30) 13.6 (00:00) 18.9 6.11 (08:10) 3.61 (00:20) 0 0 0 0 0
24-12-2019 23.3 (13:20) 12.6 (00:00) 17.9 5.28 (23:30) 3.61 (09:30) 0 0 0 0 0
23-12-2019 25.7 (14:00) 14.4 (00:00) 20.1 10.56 (05:40) 6.11 (05:30) 0 0 0 0 0
22-12-2019 21.9 (15:30) 16 (00:00) 18.9 10.56 (14:00) 5.56 (14:20) 0 0 0 0 0
21-12-2019 22.8 (11:30) 16.7 (00:00) 19.8 9.72 (16:30) 6.67 (14:00) 0 0 0 0 0
20-12-2019 19.3 (15:20) 13.7 (00:00) 16.5 12.5 (04:30) 8.89 (04:30) 3.5 1.2 0.8 1.5 0

Gráficas

Temp. máximas Temp. mínimas Temp. medias Precipitaciones Rachas de viento máximas Velocidades máximas media en intervalos de 10 minutos

Datos horarios

Fecha y hora oficial Temperatura (ºC) Velocidad del viento (km/h) Dirección del viento Racha (km/h) Dirección de racha Precipitación (mm) Presión (hPa) Tendencia (hPa) Humedad (%)
2020-01-18 23:00:00 13.8 6 Noroeste 13 Noroeste 0 1022.4 -2.3 76
2020-01-18 22:00:00 14 0 Calma 6 Noroeste 0 1023.3 -2 80
2020-01-18 21:00:00 14.7 0 Calma 5 Noroeste 0 1024.4 -1.5 80
2020-01-18 20:00:00 14.7 3 Noroeste 6 Noroeste 0 1024.7 -1.8 83
2020-01-18 19:00:00 14.7 4 Sudoeste 5 Sudoeste 0 1025.3 -1.5 82
2020-01-18 18:00:00 15.1 0 Calma 4 Sur 0 1025.9 -1.3 79
2020-01-18 17:00:00 15.2 3 Este 7 Nordeste 0 1026.5 -1.4 78
2020-01-18 16:00:00 15.6 5 Este 10 Sudeste 0.1 1026.8 -2.1 77
2020-01-18 15:00:00 15.5 6 Este 11 Este 0.2 1027.2 -2.8 68
2020-01-18 14:00:00 17.7 0 Calma 10 Noroeste 0 1027.9 -2.5 51
2020-01-18 13:00:00 14.5 7 Noroeste 15 Oeste 0.1 1028.9 -0.8 56
2020-01-18 12:00:00 14.8 5 Oeste 12 Sudoeste 0 1030 0.9 57
2020-01-18 11:00:00 13.7 7 Noroeste 13 Noroeste 0 1030.4 1.4 56
2020-01-18 10:00:00 13.3 4 Oeste 14 Noroeste 0 1029.7 1.4 53
2020-01-18 09:00:00 13 6 Noroeste 13 Noroeste 0 1029.1 0.6 53
2020-01-18 08:00:00 11.9 6 Noroeste 12 Noroeste 0 1029 0.4 55
2020-01-18 07:00:00 12.5 8 Noroeste 14 Noroeste 0 1028.3 -0.7 51
2020-01-18 06:00:00 12.6 9 Noroeste 13 Noroeste 0 1028.5 -0.2 51
2020-01-18 05:00:00 12.6 8 Noroeste 17 Noroeste 0 1028.6 -0.7 49
2020-01-18 04:00:00 12.7 8 Norte 16 Norte 0 1029 -0.4 48
2020-01-18 03:00:00 12.9 8 Noroeste 15 Noroeste 0 1028.7 -0.9 48
2020-01-18 02:00:00 13.5 7 Oeste 14 Noroeste 0 1029.3 0 52
2020-01-18 01:00:00 13.7 6 Noroeste 12 Noroeste 0 1029.4 0.2 51
2020-01-18 00:00:00 13.7 5 Norte 13 Noroeste 0 1029.6 1 50
2020-01-17 23:00:00 14.2 6 Noroeste 15 Noroeste 0 1029.3 0.6 50
2020-01-17 22:00:00 15.7 8 Noroeste 15 Noroeste 0 1029.2 0.9 48
2020-01-17 21:00:00 16.3 8 Noroeste 19 Noroeste 0 1028.6 1 46
2020-01-17 20:00:00 17.1 7 Noroeste 23 Noroeste 0 1028.7 1.6 43
2020-01-17 19:00:00 18 10 Noroeste 23 Oeste 0 1028.3 1.2 42
2020-01-17 18:00:00 18.9 12 Noroeste 30 Oeste 0 1027.6 0.2 40
2020-01-17 17:00:00 19.7 12 Noroeste 27 Oeste 0 1027.1 -1.3 39
2020-01-17 16:00:00 20.4 9 Noroeste 25 Noroeste 0 1027.1 -2.4 40
2020-01-17 15:00:00 20.6 11 Oeste 26 Oeste 0 1027.4 -2.9 42
2020-01-17 14:00:00 20.2 11 Noroeste 34 Noroeste 0 1028.4 -2.2 42
2020-01-17 13:00:00 20 11 Noroeste 24 Norte 0 1029.5 -0.6 43
2020-01-17 12:00:00 19.7 7 Sudoeste 16 Sudoeste 0 1030.3 0.6 37
2020-01-17 11:00:00 16.8 8 Sudoeste 20 Sudoeste 0 1030.6 0.8 40
2020-01-17 10:00:00 14.7 6 Oeste 16 Noroeste 0 1030.1 1.2 45
2020-01-17 09:00:00 12.8 8 Oeste 15 Oeste 0 1029.7 1.3 48
2020-01-17 08:00:00 12 9 Oeste 18 Oeste 0 1029.8 1.5 51
2020-01-17 07:00:00 11.3 9 Oeste 18 Oeste 0 1028.9 0.6 54
2020-01-17 06:00:00 10.6 7 Oeste 12 Oeste 0 1028.4 0.2 59
2020-01-17 05:00:00 10.7 6 Norte 13 Noroeste 0 1028.3 -0.2 57
2020-01-17 04:00:00 11.3 5 Noroeste 12 Noroeste 0 1028.3 -0.2 56
2020-01-17 03:00:00 11.3 4 Noroeste 10 Norte 0 1028.2 -0.5 57
2020-01-17 02:00:00 11.4 5 Noroeste 10 Norte 0 1028.5 0.1 54
2020-01-17 01:00:00 11.8 6 Noroeste 13 Norte 0 1028.5 0.6 53
2020-01-17 00:00:00 11.9 8 Noroeste 14 Noroeste 0 1028.7 1.3 53
2020-01-16 23:00:00 12 8 Norte 14 Norte 0 1028.4 1.3 53
2020-01-16 22:00:00 12.6 5 Norte 15 Norte 0 1027.9 1.2 55
2020-01-16 21:00:00 12.7 7 Norte 12 Norte 0 1027.4 1.2 60
2020-01-16 20:00:00 13.2 6 Noroeste 11 Noroeste 0 1027.1 1.2 70
2020-01-16 19:00:00 14.3 4 Este 8 Sudeste 0 1026.7 0.8 75
2020-01-16 18:00:00 15.5 3 Sudeste 10 Sudeste 0 1026.2 0.1 66
2020-01-16 17:00:00 16 5 Sudeste 9 Este 0 1025.9 -0.5 63
2020-01-16 16:00:00 16.6 5 Sudeste 10 Sur 0 1025.9 -1.1 59
2020-01-16 15:00:00 17.1 6 Sur 10 Sur 0 1026.1 -1.6 59
2020-01-16 14:00:00 16.7 5 Sudeste 12 Sudeste 0 1026.4 -1.4 53
2020-01-16 13:00:00 16 5 Sudeste 8 Sudeste 0 1027 0 47
2020-01-16 12:00:00 19.1 4 Este 8 Nordeste 0 1027.7 0.8 45
2020-01-16 11:00:00 14.8 4 Oeste 12 Noroeste 0 1027.8 1.4 53
2020-01-16 10:00:00 12.5 8 Noroeste 17 Noroeste 0 1027 1.1 52
2020-01-16 09:00:00 10.4 7 Noroeste 14 Noroeste 0 1026.9 0.9 60
2020-01-16 08:00:00 9.9 6 Noroeste 14 Noroeste 0 1026.4 0.2 61
2020-01-16 07:00:00 10.2 7 Noroeste 14 Norte 0 1025.9 -0.5 61
2020-01-16 06:00:00 10.1 8 Noroeste 15 Noroeste 0 1026 -0.5 61
2020-01-16 05:00:00 10.3 9 Noroeste 18 Norte 0 1026.2 -0.4 62
2020-01-16 04:00:00 10.7 8 Noroeste 18 Norte 0 1026.4 -0.3 61
2020-01-16 03:00:00 10.8 12 Noroeste 19 Norte 0 1026.5 -0.4 60
2020-01-16 02:00:00 11.3 9 Norte 17 Norte 0 1026.6 0.1 58
2020-01-16 01:00:00 11.9 12 Norte 17 Norte 0 1026.7 0.2 57
2020-01-16 00:00:00 11.9 8 Noroeste 14 Norte 0 1026.9 0.6 57
2020-01-15 23:00:00 12.3 4 Noroeste 13 Norte 0 1026.5 0.5 57
2020-01-15 22:00:00 13 5 Norte 10 Noroeste 0 1026.5 1.2 57
2020-01-15 21:00:00 13.4 2 Norte 19 Este 0 1026.3 1.4 64
2020-01-15 20:00:00 14.4 8 Este 19 Nordeste 0 1026 1.4 70
2020-01-15 19:00:00 15.2 12 Este 17 Este 0 1025.3 1.2 68
2020-01-15 18:00:00 15.9 10 Este 21 Este 0 1024.9 0.9 64
2020-01-15 17:00:00 16.6 9 Este 19 Sur 0 1024.6 0.2 61
2020-01-15 16:00:00 17 11 Sur 19 Sudoeste 0 1024.1 -1 58
2020-01-15 15:00:00 17.4 10 Sudoeste 18 Sur 0 1024 -1.5 52
2020-01-15 14:00:00 18.1 6 Sur 14 Sudeste 0 1024.4 -0.9 52
2020-01-15 13:00:00 17.5 9 Sur 13 Sudoeste 0 1025.1 0.6 45
2020-01-15 12:00:00 15.8 9 Sudoeste 15 Sudoeste 0 1025.5 1.4 45
2020-01-15 11:00:00 14.7 5 Oeste 10 Oeste 0 1025.3 1.9 48
2020-01-15 10:00:00 12.3 5 Oeste 12 Oeste 0 1024.5 1.9 53
2020-01-15 09:00:00 10.5 7 Noroeste 13 Noroeste 0 1024.1 1.7 57
2020-01-15 08:00:00 10.3 9 Noroeste 14 Noroeste 0 1023.4 1.2 57
2020-01-15 07:00:00 11.2 12 Oeste 18 Noroeste 0 1022.6 0.3 56
2020-01-15 06:00:00 11.3 8 Noroeste 18 Noroeste 0 1022.4 -0.1 54
2020-01-15 05:00:00 11.6 6 Noroeste 14 Oeste 0 1022.2 0 52
2020-01-15 04:00:00 12.1 8 Oeste 24 Oeste 0 1022.3 -0.5 52
2020-01-15 03:00:00 12 12 Oeste 22 Oeste 0 1022.5 -0.5 53
2020-01-15 02:00:00 12.2 11 Oeste 19 Oeste 0 1022.2 -0.6 50
2020-01-15 01:00:00 12.5 11 Noroeste 22 Noroeste 0 1022.8 0.2 47
2020-01-15 00:00:00 12.6 12 Noroeste 24 Noroeste 0 1023 0.7 47
2020-01-14 23:00:00 12.6 11 Noroeste 19 Noroeste 0 1022.8 0.6 47
2020-01-14 22:00:00 12.4 9 Noroeste 17 Noroeste 0 1022.6 0.9 48
2020-01-14 21:00:00 12.6 8 Noroeste 18 Noroeste 0 1022.3 0.9 48
2020-01-14 20:00:00 13.8 6 Noroeste 13 Noroeste 0 1022.2 1.2 45
2020-01-14 19:00:00 15 7 Noroeste 14 Noroeste 0 1021.7 0.9 42
2020-01-14 18:00:00 16 7 Noroeste 22 Oeste 0 1021.4 0.5 40
2020-01-14 17:00:00 16.6 8 Noroeste 24 Sudoeste 0 1021 -0.5 40
2020-01-14 16:00:00 15.9 13 Sudoeste 23 Sudoeste 0 1020.8 -1.7 51
2020-01-14 15:00:00 15.8 15 Sudoeste 24 Sudoeste 0 1020.9 -2.5 52
2020-01-14 14:00:00 17.9 7 Sudoeste 18 Sudoeste 0 1021.5 -1.8 38
2020-01-14 13:00:00 16.6 8 Oeste 18 Sudoeste 0 1022.5 -0.1 46
2020-01-14 12:00:00 15 9 Sudoeste 22 Noroeste 0 1023.4 1.4 49
2020-01-14 11:00:00 13.1 10 Oeste 23 Oeste 0 1023.3 1.4 54
2020-01-14 10:00:00 11.7 12 Oeste 21 Oeste 0 1022.6 1.2 57
2020-01-14 09:00:00 10.5 6 Noroeste 21 Noroeste 0 1022 1 61
2020-01-14 08:00:00 10.2 9 Noroeste 23 Oeste 0 1021.9 0.9 62
2020-01-14 07:00:00 9.9 9 Oeste 23 Oeste 0 1021.4 -0.1 63
2020-01-14 06:00:00 10.1 12 Oeste 24 Oeste 0 1021 -0.8 61
2020-01-14 05:00:00 10.4 11 Oeste 24 Oeste 0 1021 -1 61
2020-01-14 04:00:00 10.3 8 Oeste 17 Oeste 0 1021.5 -1 61
2020-01-14 03:00:00 10.5 5 Noroeste 16 Oeste 0 1021.8 -1.3 61
2020-01-14 02:00:00 10.9 7 Noroeste 15 Oeste 0 1022 -1.3 62
2020-01-14 01:00:00 10.7 5 Noroeste 16 Noroeste 0 1022.5 -0.7 63
2020-01-14 00:00:00 10.4 8 Noroeste 17 Noroeste 0 1023.1 -0.5 65
2020-01-13 23:00:00 10.4 8 Noroeste 18 Norte 0 1023.3 -0.5 69
2020-01-13 22:00:00 11 9 Norte 16 Norte 0 1023.2 -0.4 70
2020-01-13 21:00:00 11.7 7 Noroeste 15 Norte 0 1023.6 0.2 69
2020-01-13 20:00:00 13 2 Norte 9 Sudeste 0 1023.8 0.4 68
2020-01-13 19:00:00 13.8 6 Sudeste 13 Sur 0 1023.6 0.1 67
2020-01-13 18:00:00 14.3 9 Sur 15 Sur 0 1023.4 -0.4 63
2020-01-13 17:00:00 15.1 9 Sur 15 Sur 0 1023.4 -1.4 58
2020-01-13 16:00:00 15.9 8 Sur 13 Sudeste 0 1023.5 -2.3 55
2020-01-13 15:00:00 16.2 7 Sur 13 Sur 0 1023.8 -2.8 55
2020-01-13 14:00:00 16.1 8 Sur 11 Sur 0 1024.8 -2.1 54
2020-01-13 13:00:00 15.2 6 Sudeste 11 Sudeste 0 1025.8 -0.7 56
2020-01-13 12:00:00 16.9 3 Sur 10 Oeste 0 1026.6 0.5 53
2020-01-13 11:00:00 13.9 6 Oeste 14 Noroeste 0 1026.9 0.5 62
2020-01-13 10:00:00 11.2 10 Noroeste 17 Noroeste 0 1026.5 0.3 68
2020-01-13 09:00:00 9.9 8 Norte 17 Noroeste 0 1026.1 0.1 73
2020-01-13 08:00:00 9.7 9 Noroeste 16 Noroeste 0 1026.4 -0.1 76
2020-01-13 07:00:00 9.9 6 Noroeste 15 Norte 0 1026.2 -0.7 76
2020-01-13 06:00:00 10.2 8 Noroeste 15 Noroeste 0 1026 -1.2 73
2020-01-13 05:00:00 10.4 9 Noroeste 16 Noroeste 0 1026.5 -0.8 73
2020-01-13 04:00:00 10.1 6 Noroeste 16 Norte 0 1026.9 -0.8 73
2020-01-13 03:00:00 10 10 Norte 17 Norte 0 1027.2 -1 74
2020-01-13 02:00:00 10.2 9 Noroeste 17 Norte 0 1027.3 -0.7 74
2020-01-13 01:00:00 10.6 9 Norte 18 Norte 0 1027.7 -0.3 73
2020-01-13 00:00:00 10.9 8 Norte 17 Norte 0 1028.2 0.3 73
2020-01-12 23:00:00 11.3 9 Norte 15 Norte 0 1028 0.2 72
2020-01-12 22:00:00 12 6 Norte 11 Norte 0 1028 0.8 71
2020-01-12 21:00:00 12.7 3 Norte 10 Sudeste 0 1027.9 1.3 68
2020-01-12 20:00:00 14.2 8 Sudeste 12 Sudeste 0 1027.8 1.4 65
2020-01-12 19:00:00 14.1 9 Sudeste 15 Sudeste 0 1027.2 0.6 65
2020-01-12 18:00:00 14.6 10 Sudeste 18 Sudeste 0 1026.6 0 63
2020-01-12 17:00:00 15.3 10 Sur 17 Sur 0 1026.4 -0.8 58
2020-01-12 16:00:00 16 8 Sur 22 Sur 0 1026.6 -1.6 59
2020-01-12 15:00:00 16.1 11 Sur 23 Sur 0 1026.6 -2.7 62
2020-01-12 14:00:00 15.6 14 Sudoeste 22 Sur 0 1027.2 -2.6 60
2020-01-12 13:00:00 16.4 12 Sudoeste 22 Sudoeste 0 1028.2 -1.3 54
2020-01-12 12:00:00 15.5 10 Sudoeste 15 Sudoeste 0 1029.3 0 57
2020-01-12 11:00:00 13.6 6 Oeste 13 Oeste 0 1029.8 0.8 61
2020-01-12 10:00:00 12 6 Noroeste 17 Noroeste 0 1029.5 0.6 67
2020-01-12 09:00:00 10 8 Noroeste 17 Noroeste 0 1029.3 0.4 72
2020-01-12 08:00:00 10.7 10 Noroeste 18 Noroeste 0 1029 -0.1 71
2020-01-12 07:00:00 10.2 7 Noroeste 17 Norte 0 1028.9 -0.4 70
2020-01-12 06:00:00 10.5 10 Noroeste 18 Noroeste 0 1028.9 -0.4 69
2020-01-12 05:00:00 10.8 10 Norte 18 Norte 0 1029.1 -0.2 69
2020-01-12 04:00:00 11.2 9 Norte 15 Noroeste 0 1029.3 -0.2 69
2020-01-12 03:00:00 11.6 5 Noroeste 13 Noroeste 0 1029.3 -0.3 69
2020-01-12 02:00:00 12.4 7 Noroeste 10 Norte 0 1029.3 -0.3 68
2020-01-12 01:00:00 12.6 5 Oeste 12 Noroeste 0 1029.5 0.1 69
2020-01-12 00:00:00 13.1 8 Noroeste 10 Noroeste 0 1029.6 0.6 65
2020-01-11 23:00:00 13.1 5 Noroeste 12 Norte 0 1029.6 0.9 68
2020-01-11 22:00:00 12.9 5 Noroeste 11 Noroeste 0 1029.4 1.5 69
2020-01-11 21:00:00 13.6 3 Noroeste 7 Sudeste 0 1029 1.4 68
2020-01-11 20:00:00 14.6 5 Sudeste 10 Sudeste 0 1028.7 1.7 66
2020-01-11 19:00:00 14.7 6 Sudeste 13 Sur 0 1027.9 1.4 63
2020-01-11 18:00:00 15.5 8 Sur 17 Sur 0 1027.6 1.1 56
2020-01-11 17:00:00 16 11 Sur 22 Sur 0 1027 0 55
2020-01-11 16:00:00 16.1 13 Sur 20 Sur 0 1026.5 -1.2 59
2020-01-11 15:00:00 17 8 Sur 17 Sur 0 1026.5 -1.9 56
2020-01-11 14:00:00 16.9 9 Sur 17 Sudoeste 0 1027 -1.5 52
2020-01-11 13:00:00 16.9 9 Sudoeste 16 Sudoeste 0 1027.7 0 41
2020-01-11 12:00:00 15.1 10 Sudoeste 16 Sudoeste 0 1028.4 1.4 43
2020-01-11 11:00:00 13.7 7 Oeste 15 Oeste 0 1028.5 1.8 47
2020-01-11 10:00:00 12.2 4 Noroeste 32 Noroeste 0 1027.7 1.4 52
2020-01-11 09:00:00 10.1 9 Noroeste 14 Noroeste 0 1027 1.1 57
2020-01-11 08:00:00 10.1 6 Oeste 14 Noroeste 0 1026.7 0.9 55
2020-01-11 07:00:00 10 7 Noroeste 13 Oeste 0 1026.3 0.2 52
2020-01-11 06:00:00 10.3 6 Oeste 11 Oeste 0 1025.9 0.2 51
2020-01-11 05:00:00 10.7 7 Noroeste 13 Norte 0 1025.8 0.5 51
2020-01-11 04:00:00 10.9 6 Noroeste 14 Noroeste 0 1026.1 0.6 50
2020-01-11 03:00:00 11.1 9 Noroeste 15 Noroeste 0 1025.7 0.3 49
2020-01-11 02:00:00 10.9 9 Noroeste 16 Noroeste 0 1025.3 0.2 51
2020-01-11 01:00:00 11.7 6 Noroeste 10 Noroeste 0 1025.5 0.7 49
2020-01-11 00:00:00 12.2 3 Noroeste 15 Noroeste 0 1025.4 1.4 51
2020-01-10 23:00:00 12.7 7 Noroeste 14 Noroeste 0 1025.1 2 50
2020-01-10 22:00:00 13.6 6 Noroeste 11 Norte 0 1024.8 2.5 60
2020-01-10 21:00:00 14.1 2 Sur 9 Sur 0 1024 3 72
2020-01-10 20:00:00 15.4 5 Este 22 Noroeste 0 1023.1 3.1 61
2020-01-10 19:00:00 16.4 9 Noroeste 21 Oeste 0 1022.3 2.4 44
2020-01-10 18:00:00 17.5 6 Noroeste 20 Noroeste 0 1021 0.8 40
2020-01-10 17:00:00 18.4 10 Noroeste 29 Noroeste 0 1020 -0.6 40
2020-01-10 16:00:00 17.9 14 Noroeste 29 Noroeste 0 1019.9 -1.6 40
2020-01-10 15:00:00 18.5 10 Noroeste 28 Noroeste 0 1020.2 -2.8 40
2020-01-10 14:00:00 17.7 15 Noroeste 31 Noroeste 0 1020.6 -2.9 41
2020-01-10 13:00:00 17.5 13 Noroeste 35 Oeste 0 1021.5 -1.9 45
2020-01-10 12:00:00 16.5 15 Oeste 30 Oeste 0 1023 -0.1 50
2020-01-10 11:00:00 15.7 14 Oeste 29 Oeste 0 1023.5 0.6 55
2020-01-10 10:00:00 14.6 8 Noroeste 22 Norte 0 1023.4 0.5 58
2020-01-10 09:00:00 13 8 Noroeste 23 Oeste 0 1023.1 0.5 65
2020-01-10 08:00:00 12.5 12 Oeste 28 Noroeste 0 1022.9 0.2 65
2020-01-10 07:00:00 12.9 13 Noroeste 35 Noroeste 0 1022.9 -0.3 64
2020-01-10 06:00:00 12.2 9 Sudoeste 23 Oeste 0 1022.6 -1 65
2020-01-10 05:00:00 12.3 12 Oeste 28 Oeste 0 1022.7 -1.2 65
2020-01-10 04:00:00 12 11 Noroeste 22 Oeste 0 1023.2 -1.6 68
2020-01-10 03:00:00 11.6 9 Sudoeste 21 Oeste 0 1023.6 -1.6 68
2020-01-10 02:00:00 11.6 5 Noroeste 14 Oeste 0 1023.9 -1.5 70
2020-01-10 01:00:00 11 4 Noroeste 13 Norte 0 1024.8 -0.2 74
2020-01-10 00:00:00 10.9 8 Noroeste 14 Noroeste 0 1025.2 -0.1 74
2020-01-09 23:00:00 11.2 6 Norte 13 Norte 0 1025.4 -0.2 74
2020-01-09 22:00:00 11.8 8 Norte 17 Noroeste 0 1025 0.1 73
2020-01-09 21:00:00 12.4 6 Noroeste 14 Norte 0 1025.3 0.8 72
2020-01-09 20:00:00 13.2 5 Norte 12 Norte 0 1025.6 0.8 73
2020-01-09 19:00:00 14.2 5 Sur 13 Sur 0 1024.9 0.3 71
2020-01-09 18:00:00 14.7 8 Sur 14 Sur 0 1024.5 -0.7 65
2020-01-09 17:00:00 15.7 7 Sur 14 Sudoeste 0 1024.8 -1 62
2020-01-09 16:00:00 15.9 8 Sur 14 Sur 0 1024.6 -2.3 59
2020-01-09 15:00:00 16.5 8 Sur 13 Sur 0 1025.2 -2.5 56
2020-01-09 14:00:00 17.3 6 Sur 9 Sur 0 1025.8 -1.9 53
2020-01-09 13:00:00 15.7 4 Sur 7 Sur 0 1026.9 -0.4 57
2020-01-09 12:00:00 15.8 0 Calma 6 Sur 0 1027.7 0.8 59
2020-01-09 11:00:00 14.2 4 Noroeste 9 Noroeste 0 1027.7 1 64
2020-01-09 10:00:00 13.1 5 Noroeste 10 Noroeste 0 1027.3 0.7 68
2020-01-09 09:00:00 12.5 7 Noroeste 11 Noroeste 0 1026.9 0.2 71
2020-01-09 08:00:00 12.3 5 Noroeste 10 Noroeste 0 1026.7 -0.2 71
2020-01-09 07:00:00 12.3 6 Noroeste 10 Noroeste 0 1026.6 -0.7 72
2020-01-09 06:00:00 12.1 4 Noroeste 8 Noroeste 0 1026.7 -1.1 72
2020-01-09 05:00:00 12.2 4 Noroeste 10 Noroeste 0 1026.9 -0.8 71
2020-01-09 04:00:00 12 7 Noroeste 12 Noroeste 0 1027.3 -0.9 69
2020-01-09 03:00:00 12.1 5 Noroeste 13 Noroeste 0 1027.8 -0.6 69
2020-01-09 02:00:00 11.9 7 Norte 15 Noroeste 0 1027.7 -0.6 69
2020-01-09 01:00:00 11.9 6 Noroeste 14 Norte 0 1028.2 0.3 72
2020-01-09 00:00:00 11.7 9 Noroeste 14 Noroeste 0 1028.4 0.8 74
2020-01-08 23:00:00 11.6 9 Noroeste 13 Noroeste 0 1028.3 1.1 76
2020-01-08 22:00:00 12.3 4 Norte 8 Noroeste 0 1027.9 1.2 78
2020-01-08 21:00:00 12.4 5 Norte 9 Este 0 1027.6 1.2 78
2020-01-08 20:00:00 13.1 7 Este 15 Sudeste 0 1027.2 1.2 78
2020-01-08 19:00:00 13.5 11 Sudeste 15 Sudeste 0 1026.7 1.1 76
2020-01-08 18:00:00 13.7 9 Sudeste 25 Sudeste 0 1026.4 0.6 72
2020-01-08 17:00:00 14.3 8 Sudeste 13 Sudeste 0 1026 -0.1 67
2020-01-08 16:00:00 14.4 8 Sudeste 11 Sudeste 0 1025.6 -1.5 65
2020-01-08 15:00:00 15.9 8 Sur 13 Sur 0 1025.8 -2.3 61
2020-01-08 14:00:00 16.5 4 Sudeste 11 Sur 0 1026.1 -2.2 59
2020-01-08 13:00:00 15.7 5 Sudeste 10 Sudeste 0 1027.1 -0.9 60
2020-01-08 12:00:00 15.2 6 Sur 11 Sudeste 0 1028.1 0.7 66
2020-01-08 11:00:00 13.6 3 Nordeste 10 Noroeste 0 1028.3 1.5 69
2020-01-08 10:00:00 11.4 4 Noroeste 9 Noroeste 0 1028 1.8 68
2020-01-08 09:00:00 9.4 5 Norte 9 Norte 0 1027.4 1 71
2020-01-08 08:00:00 8.7 5 Noroeste 9 Noroeste 0 1026.8 0.2 73
2020-01-08 07:00:00 9 5 Noroeste 9 Noroeste 0 1026.2 -0.9 74
2020-01-08 06:00:00 9.1 7 Noroeste 12 Noroeste 0 1026.4 -1 71
2020-01-08 05:00:00 9.2 8 Noroeste 14 Noroeste 0 1026.6 -1.1 73
2020-01-08 04:00:00 9.6 8 Noroeste 12 Norte 0 1027.1 -0.9 73
2020-01-08 03:00:00 9.8 5 Noroeste 17 Noroeste 0 1027.4 -1.2 73
2020-01-08 02:00:00 10.1 9 Noroeste 18 Noroeste 0 1027.7 -1 72
2020-01-08 01:00:00 10.3 10 Noroeste 16 Noroeste 0 1028 -0.9 74
2020-01-08 00:00:00 10.7 7 Noroeste 15 Norte 0 1028.6 0.1 76
2020-01-07 23:00:00 11.1 9 Norte 14 Norte 0 1028.7 0.5 76
2020-01-07 22:00:00 11.6 8 Norte 13 Norte 0 1028.9 0.7 76
2020-01-07 21:00:00 12.1 3 Noroeste 9 Norte 0 1028.5 0.2 75
2020-01-07 20:00:00 12.4 6 Norte 10 Norte 0 1028.2 0.3 75
2020-01-07 19:00:00 13.4 0 Calma 8 Sudeste 0 1028.2 0.3 74
2020-01-07 18:00:00 14.1 5 Sudeste 12 Sudeste 0 1028.3 0.4 69
2020-01-07 17:00:00 14.5 7 Sudeste 12 Sur 0 1027.9 -0.5 63
2020-01-07 16:00:00 15.4 8 Sudeste 13 Sudeste 0 1027.9 -1.5 62
2020-01-07 15:00:00 15.2 6 Sudeste 11 Este 0 1027.9 -2.4 59
2020-01-07 14:00:00 14.8 6 Sudeste 10 Este 0 1028.4 -2.2 58
2020-01-07 13:00:00 16.2 4 Sudeste 8 Este 0 1029.4 -0.7 53
2020-01-07 12:00:00 16.7 3 Sudeste 6 Sudeste 0 1030.3 0.9 51
2020-01-07 11:00:00 15.1 2 Noroeste 13 Norte 0 1030.6 1.4 53
2020-01-07 10:00:00 10.8 9 Noroeste 15 Noroeste 0 1030.1 1.2 63
2020-01-07 09:00:00 9.3 4 Norte 14 Noroeste 0 1029.4 0.6 72
2020-01-07 08:00:00 9.2 8 Noroeste 15 Noroeste 0 1029.2 0.5 73
2020-01-07 07:00:00 9.2 5 Noroeste 10 Oeste 0 1028.9 -0.1 78
2020-01-07 06:00:00 9.4 6 Noroeste 17 Noroeste 0 1028.8 -0.1 77
2020-01-07 05:00:00 9.8 11 Noroeste 17 Noroeste 0 1028.7 -0.2 74
2020-01-07 04:00:00 10 7 Norte 18 Norte 0 1029 0 74
2020-01-07 03:00:00 10.1 11 Noroeste 19 Noroeste 0 1028.9 -0.3 73
2020-01-07 02:00:00 10.3 10 Noroeste 19 Norte 0 1028.9 -0.1 73
2020-01-07 01:00:00 10.2 8 Norte 18 Norte 0 1029 0.4 73
2020-01-07 00:00:00 10.5 8 Norte 18 Norte 0 1029.2 1.1 72
2020-01-06 23:00:00 10.9 9 Noroeste 17 Noroeste 0 1029 1.2 71
2020-01-06 22:00:00 11.3 9 Norte 17 Norte 0 1028.6 1.4 70
2020-01-06 21:00:00 12 4 Noroeste 12 Norte 0 1028.1 1.4 69
2020-01-06 20:00:00 12.8 0 Calma 7 Sudeste 0 1027.8 1.4 67
2020-01-06 19:00:00 14 4 Sudeste 8 Sudeste 0 1027.2 1.1 64
2020-01-06 18:00:00 14.6 8 Sur 12 Sudeste 0 1026.7 0.3 61
2020-01-06 17:00:00 15.3 6 Sudeste 11 Sudeste 0 1026.4 -0.6 59
2020-01-06 16:00:00 16.2 6 Sur 12 Sudeste 0 1026.1 -1.7 57
2020-01-06 15:00:00 16.2 7 Sur 12 Sur 0 1026.4 -2 56
2020-01-06 14:00:00 16.4 7 Sudeste 11 Sur 0 1027 -1.8 51
2020-01-06 13:00:00 17.1 6 Sur 9 Sur 0 1027.8 -0.5 47
2020-01-06 12:00:00 17.1 3 Sudoeste 8 Sudoeste 0 1028.4 0.8 52
2020-01-06 11:00:00 13.2 6 Noroeste 17 Noroeste 0 1028.8 1.9 63
2020-01-06 10:00:00 11.2 10 Noroeste 20 Noroeste 0 1028.3 1.7 68